createdAt,value
2018-05-31T00:03:24.004Z,23.90
2018-05-31T00:05:51.460Z,23.80
2018-05-31T00:08:18.899Z,23.90
2018-05-31T00:10:46.629Z,23.90
2018-05-31T00:13:14.088Z,23.90
2018-05-31T00:15:41.534Z,23.90
2018-05-31T00:18:10.660Z,23.80
2018-05-31T00:20:38.104Z,23.60
2018-05-31T00:23:05.610Z,23.40
2018-05-31T00:25:33.061Z,23.20
2018-05-31T00:28:00.498Z,23.00
2018-05-31T00:30:27.953Z,22.80
2018-05-31T00:32:55.509Z,22.60
2018-05-31T00:35:22.962Z,22.50
2018-05-31T00:37:50.431Z,22.50
2018-05-31T00:40:17.879Z,22.40
2018-05-31T00:42:45.357Z,22.40
2018-05-31T00:45:12.814Z,22.40
2018-05-31T00:47:40.622Z,22.30
2018-05-31T00:50:08.101Z,22.20
2018-05-31T00:52:35.558Z,22.10
2018-05-31T00:55:03.025Z,22.10
2018-05-31T00:57:30.864Z,22.00
2018-05-31T00:59:58.745Z,22.00
2018-05-31T01:02:26.211Z,22.00
2018-05-31T01:04:53.647Z,22.00
2018-05-31T01:07:21.312Z,21.90
2018-05-31T01:09:48.744Z,21.90
2018-05-31T01:12:16.491Z,21.90
2018-05-31T01:14:44.326Z,21.90
2018-05-31T01:17:11.769Z,21.90
2018-05-31T01:19:39.216Z,21.80
2018-05-31T01:22:06.678Z,21.80
2018-05-31T01:24:34.252Z,21.90
2018-05-31T01:27:01.709Z,21.80
2018-05-31T01:29:29.509Z,21.80
2018-05-31T01:31:57.164Z,21.70
2018-05-31T01:34:24.587Z,21.70
2018-05-31T01:36:52.207Z,21.60
2018-05-31T01:39:19.660Z,21.60
2018-05-31T01:41:47.125Z,21.50
2018-05-31T01:44:14.599Z,21.50
2018-05-31T01:46:42.039Z,21.50
2018-05-31T01:49:09.476Z,21.50
2018-05-31T01:51:37.000Z,21.60
2018-05-31T01:54:04.516Z,21.60
2018-05-31T01:56:31.993Z,21.60
2018-05-31T01:58:59.441Z,21.60
2018-05-31T02:01:26.897Z,21.60
2018-05-31T02:03:54.369Z,21.70
2018-05-31T02:06:22.024Z,21.70
2018-05-31T02:08:49.470Z,21.70
2018-05-31T02:11:17.498Z,21.70
2018-05-31T02:13:44.939Z,21.70
2018-05-31T02:16:12.391Z,21.70
2018-05-31T02:18:39.852Z,21.70
2018-05-31T02:21:07.370Z,21.70
2018-05-31T02:23:35.229Z,21.60
2018-05-31T02:26:02.679Z,21.60
2018-05-31T02:28:30.517Z,21.50
2018-05-31T02:30:57.948Z,21.50
2018-05-31T02:33:25.403Z,21.40
2018-05-31T02:35:52.847Z,21.30
2018-05-31T02:38:20.299Z,21.20
2018-05-31T02:40:47.843Z,21.10
2018-05-31T02:43:15.347Z,21.00
2018-05-31T02:45:42.810Z,20.90
2018-05-31T02:48:10.569Z,20.80
2018-05-31T02:50:37.989Z,20.80
2018-05-31T02:53:05.464Z,20.70
2018-05-31T02:55:32.914Z,20.70
2018-05-31T02:58:00.384Z,20.60
2018-05-31T03:00:27.816Z,20.60
2018-05-31T03:02:55.492Z,20.60
2018-05-31T03:05:23.245Z,20.60
2018-05-31T03:07:50.801Z,20.60
2018-05-31T03:10:18.305Z,20.60
2018-05-31T03:12:45.754Z,20.60
2018-05-31T03:15:13.189Z,20.70
2018-05-31T03:17:40.642Z,20.70
2018-05-31T03:20:08.878Z,20.70
2018-05-31T03:22:36.337Z,20.70
2018-05-31T03:25:03.814Z,20.70
2018-05-31T03:27:31.297Z,20.70
2018-05-31T03:29:58.811Z,20.70
2018-05-31T03:32:26.596Z,20.70
2018-05-31T03:34:54.047Z,20.80
2018-05-31T03:37:21.488Z,20.80
2018-05-31T03:39:48.949Z,20.80
2018-05-31T03:42:16.847Z,20.90
2018-05-31T03:44:44.325Z,20.90
2018-05-31T03:47:11.776Z,20.90
2018-05-31T03:49:39.217Z,20.90
2018-05-31T03:52:06.771Z,21.00
2018-05-31T03:54:34.219Z,21.00
2018-05-31T03:57:01.700Z,21.00
2018-05-31T03:59:29.180Z,21.00
2018-05-31T04:01:56.617Z,21.00
2018-05-31T04:04:24.410Z,21.10
2018-05-31T04:06:51.885Z,21.10
2018-05-31T04:09:19.320Z,21.10
2018-05-31T04:11:46.830Z,21.10
2018-05-31T04:14:14.287Z,21.10
2018-05-31T04:16:41.727Z,21.10
2018-05-31T04:19:09.184Z,21.10
2018-05-31T04:21:36.981Z,21.10
2018-05-31T04:24:04.475Z,21.20
2018-05-31T04:26:31.922Z,21.20
2018-05-31T04:28:59.374Z,21.30
2018-05-31T04:31:26.836Z,21.20
2018-05-31T04:33:54.275Z,21.20
2018-05-31T04:36:21.869Z,21.20
2018-05-31T04:38:49.380Z,21.30
2018-05-31T04:41:17.334Z,21.20
2018-05-31T04:43:44.793Z,21.30
2018-05-31T04:46:12.496Z,21.30
2018-05-31T04:48:39.955Z,21.30
2018-05-31T04:51:07.432Z,21.40
2018-05-31T04:53:34.925Z,21.50
2018-05-31T04:56:02.334Z,21.60
2018-05-31T04:58:29.768Z,21.70
2018-05-31T05:00:57.212Z,21.90
2018-05-31T05:03:24.751Z,21.90
2018-05-31T05:05:52.207Z,22.00
2018-05-31T05:08:19.656Z,22.10
2018-05-31T05:10:47.209Z,22.20
2018-05-31T05:13:14.679Z,22.20
2018-05-31T05:15:42.122Z,22.30
2018-05-31T05:18:09.584Z,22.40
2018-05-31T05:20:37.376Z,22.40
2018-05-31T05:23:04.833Z,22.50
2018-05-31T05:25:32.381Z,22.60
2018-05-31T05:27:59.819Z,22.60
2018-05-31T05:30:27.255Z,22.80
2018-05-31T05:32:54.716Z,22.90
2018-05-31T05:35:22.156Z,23.00
2018-05-31T05:37:49.912Z,23.10
2018-05-31T05:40:17.489Z,23.20
2018-05-31T05:42:45.348Z,23.30
2018-05-31T05:45:12.825Z,23.40
2018-05-31T05:47:40.266Z,23.50
2018-05-31T05:50:07.741Z,23.50
2018-05-31T05:52:35.171Z,23.60
2018-05-31T05:55:02.610Z,23.60
2018-05-31T05:57:30.119Z,23.60
2018-05-31T05:59:57.599Z,23.70
2018-05-31T06:02:25.056Z,23.70
2018-05-31T06:04:52.588Z,23.70
2018-05-31T06:07:20.029Z,23.80
2018-05-31T06:09:47.479Z,23.80
2018-05-31T06:12:14.927Z,24.00
2018-05-31T06:14:42.763Z,24.00
2018-05-31T06:17:10.645Z,24.10
2018-05-31T06:19:38.092Z,24.20
2018-05-31T06:22:05.972Z,24.30
2018-05-31T06:24:33.551Z,24.40
2018-05-31T06:27:00.971Z,24.60
2018-05-31T06:29:28.400Z,24.80
2018-05-31T06:31:56.232Z,25.00
2018-05-31T06:34:23.775Z,25.20
2018-05-31T06:36:51.216Z,25.40
2018-05-31T06:39:19.021Z,25.60
2018-05-31T06:41:46.481Z,25.70
2018-05-31T06:44:13.969Z,25.70
2018-05-31T06:46:41.502Z,25.70
2018-05-31T06:49:08.950Z,25.70
2018-05-31T06:51:36.434Z,25.70
2018-05-31T06:54:03.876Z,25.70
2018-05-31T06:56:31.434Z,25.80
2018-05-31T06:58:58.904Z,25.80
2018-05-31T07:01:27.439Z,25.80
2018-05-31T07:03:54.904Z,25.80
2018-05-31T07:06:22.417Z,26.00
2018-05-31T07:08:49.874Z,26.10
2018-05-31T07:11:17.332Z,26.20
2018-05-31T07:13:44.773Z,26.10
2018-05-31T07:16:12.412Z,26.00
2018-05-31T07:18:39.852Z,26.00
2018-05-31T07:21:07.585Z,26.10
2018-05-31T07:23:35.033Z,26.30
2018-05-31T07:26:02.486Z,26.60
2018-05-31T07:28:29.935Z,26.80
2018-05-31T07:30:58.139Z,27.00
2018-05-31T07:33:25.627Z,26.90
2018-05-31T07:35:53.100Z,27.10
2018-05-31T07:38:20.542Z,27.20
2018-05-31T07:40:47.983Z,27.10
2018-05-31T07:43:15.520Z,27.10
2018-05-31T07:45:42.965Z,27.20
2018-05-31T07:48:10.412Z,27.20
2018-05-31T07:50:37.898Z,27.10
2018-05-31T07:53:05.342Z,27.00
2018-05-31T07:55:32.809Z,27.00
2018-05-31T07:58:00.266Z,26.90
2018-05-31T08:00:27.732Z,26.70
2018-05-31T08:02:55.171Z,26.70
2018-05-31T08:05:22.624Z,26.70
2018-05-31T08:07:50.058Z,26.60
2018-05-31T08:10:17.583Z,26.40
2018-05-31T08:12:45.056Z,26.30
2018-05-31T08:15:12.510Z,26.20
2018-05-31T08:17:40.810Z,26.20
2018-05-31T08:20:08.643Z,26.30
2018-05-31T08:22:36.075Z,26.50
2018-05-31T08:25:03.567Z,26.70
2018-05-31T08:27:31.115Z,26.70
2018-05-31T08:29:58.548Z,26.90
2018-05-31T08:32:26.055Z,27.00
2018-05-31T08:34:53.487Z,27.30
2018-05-31T08:37:20.995Z,27.60
2018-05-31T08:39:48.436Z,27.80
2018-05-31T08:42:15.882Z,27.90
2018-05-31T08:44:43.331Z,28.10
2018-05-31T08:47:10.772Z,28.40
2018-05-31T08:49:38.593Z,28.90
2018-05-31T08:52:06.058Z,29.10
2018-05-31T08:54:33.501Z,29.20
2018-05-31T08:57:00.997Z,29.50
2018-05-31T08:59:28.463Z,29.80
2018-05-31T09:01:55.932Z,29.90
2018-05-31T09:04:23.384Z,30.10
2018-05-31T09:06:50.827Z,30.30
2018-05-31T09:09:18.284Z,30.30
2018-05-31T09:11:45.774Z,30.20
2018-05-31T09:14:13.236Z,30.00
2018-05-31T09:16:40.683Z,29.90
2018-05-31T09:19:08.219Z,29.80
2018-05-31T09:21:35.703Z,29.80
2018-05-31T09:24:03.364Z,29.70
2018-05-31T09:26:30.823Z,29.70
2018-05-31T09:28:58.389Z,29.90
2018-05-31T09:31:25.938Z,30.10
2018-05-31T09:33:53.387Z,30.20
2018-05-31T09:36:20.833Z,30.10
2018-05-31T09:38:48.296Z,30.00
2018-05-31T09:41:15.808Z,30.10
2018-05-31T09:43:43.252Z,30.20
2018-05-31T09:46:10.911Z,30.30
2018-05-31T09:48:38.350Z,30.20
2018-05-31T09:51:06.555Z,30.10
2018-05-31T09:53:34.024Z,30.20
2018-05-31T09:56:01.455Z,30.20
2018-05-31T09:58:29.256Z,30.30
2018-05-31T10:00:56.714Z,30.40
2018-05-31T10:03:24.164Z,30.60
2018-05-31T10:05:51.608Z,31.00
2018-05-31T10:08:19.055Z,31.40
2018-05-31T10:10:46.507Z,31.70
2018-05-31T10:13:13.945Z,32.10
2018-05-31T10:15:41.384Z,32.30
2018-05-31T10:18:08.827Z,32.70
2018-05-31T10:20:36.271Z,33.10
2018-05-31T10:23:03.723Z,33.80
2018-05-31T10:25:31.265Z,34.60
2018-05-31T10:27:58.704Z,35.30
2018-05-31T10:30:26.154Z,36.10
2018-05-31T10:32:53.621Z,36.80
2018-05-31T10:35:21.072Z,37.20
2018-05-31T10:37:48.555Z,37.10
2018-05-31T10:40:15.996Z,37.10
2018-05-31T10:42:43.448Z,37.20
2018-05-31T10:45:10.899Z,37.40
2018-05-31T10:47:38.347Z,37.60
2018-05-31T10:50:05.790Z,37.40
2018-05-31T10:52:33.323Z,36.60
2018-05-31T10:55:00.776Z,35.60
2018-05-31T10:57:28.262Z,35.00
2018-05-31T10:59:55.728Z,34.80
2018-05-31T11:02:23.299Z,34.80
2018-05-31T11:04:50.741Z,34.70
2018-05-31T11:07:18.190Z,34.40
2018-05-31T11:09:45.644Z,34.90
2018-05-31T11:12:13.095Z,35.90
2018-05-31T11:14:40.537Z,36.60
2018-05-31T11:17:07.980Z,36.10
2018-05-31T11:19:35.428Z,36.00
2018-05-31T11:22:03.293Z,36.40
2018-05-31T11:24:30.739Z,36.70
2018-05-31T11:26:58.192Z,37.00
2018-05-31T11:29:25.686Z,37.40
2018-05-31T11:31:53.105Z,37.80
2018-05-31T11:34:20.565Z,38.20
2018-05-31T11:36:48.052Z,38.40
2018-05-31T11:39:15.489Z,38.70
2018-05-31T11:41:42.944Z,38.70
2018-05-31T11:44:10.403Z,39.10
2018-05-31T11:46:37.843Z,39.30
2018-05-31T11:49:05.390Z,39.30
2018-05-31T11:51:32.853Z,39.50
2018-05-31T11:54:00.309Z,39.60
2018-05-31T11:56:28.173Z,39.90
2018-05-31T11:58:55.587Z,40.10
2018-05-31T12:01:23.068Z,40.00
2018-05-31T12:03:50.568Z,40.20
2018-05-31T12:06:18.024Z,40.50
2018-05-31T12:08:45.499Z,40.90
2018-05-31T12:11:12.939Z,41.20
2018-05-31T12:13:40.391Z,41.20
2018-05-31T12:16:07.860Z,39.90
2018-05-31T12:18:35.316Z,38.20
2018-05-31T12:21:02.783Z,36.80
2018-05-31T12:23:30.230Z,35.70
2018-05-31T12:25:57.683Z,35.50
2018-05-31T12:28:25.124Z,35.80
2018-05-31T12:30:52.564Z,36.70
2018-05-31T12:33:20.020Z,38.00
2018-05-31T12:35:47.958Z,38.90
2018-05-31T12:38:15.408Z,39.20
2018-05-31T12:40:42.861Z,39.50
2018-05-31T12:43:10.426Z,40.10
2018-05-31T12:45:37.883Z,40.30
2018-05-31T12:48:05.347Z,40.60
2018-05-31T12:50:32.808Z,40.80
2018-05-31T12:53:01.167Z,40.30
2018-05-31T12:55:29.285Z,39.60
2018-05-31T12:57:56.737Z,39.30
2018-05-31T13:00:24.261Z,38.30
2018-05-31T13:02:51.695Z,37.60
2018-05-31T13:05:19.155Z,37.50
2018-05-31T13:07:47.004Z,37.30
2018-05-31T13:10:14.477Z,36.40
2018-05-31T13:12:41.913Z,35.60
2018-05-31T13:15:09.363Z,34.90
2018-05-31T13:17:36.855Z,34.30
2018-05-31T13:20:04.304Z,34.80
2018-05-31T13:22:31.752Z,35.80
2018-05-31T13:24:59.239Z,36.60
2018-05-31T13:27:27.007Z,37.50
2018-05-31T13:29:54.463Z,38.20
2018-05-31T13:32:21.939Z,38.70
2018-05-31T13:34:49.396Z,39.20
2018-05-31T13:37:16.840Z,39.70
2018-05-31T13:39:44.317Z,39.50
2018-05-31T13:42:11.787Z,39.40
2018-05-31T13:44:39.320Z,39.40
2018-05-31T13:47:07.139Z,39.10
2018-05-31T13:49:34.571Z,38.50
2018-05-31T13:52:02.029Z,38.00
2018-05-31T13:54:29.466Z,37.80
2018-05-31T13:56:56.974Z,37.70
2018-05-31T13:59:24.455Z,37.70
2018-05-31T14:01:52.160Z,37.10
2018-05-31T14:04:19.612Z,36.50
2018-05-31T14:06:47.235Z,36.20
2018-05-31T14:09:14.684Z,36.20
2018-05-31T14:11:42.140Z,36.40
2018-05-31T14:14:09.591Z,36.70
2018-05-31T14:16:37.046Z,37.10
2018-05-31T14:19:04.494Z,37.50
2018-05-31T14:21:32.013Z,37.50
2018-05-31T14:23:59.877Z,37.50
2018-05-31T14:26:27.408Z,37.20
2018-05-31T14:28:54.871Z,37.00
2018-05-31T14:31:22.335Z,36.50
2018-05-31T14:33:49.772Z,35.60
2018-05-31T14:36:17.220Z,34.80
2018-05-31T14:38:44.664Z,34.30
2018-05-31T14:41:12.195Z,33.90
2018-05-31T14:43:39.627Z,33.80
2018-05-31T14:46:07.104Z,33.70
2018-05-31T14:48:34.573Z,33.60
2018-05-31T14:51:02.355Z,33.60
2018-05-31T14:53:29.834Z,33.60
2018-05-31T14:55:57.279Z,33.50
2018-05-31T14:58:24.731Z,33.50
2018-05-31T15:00:52.200Z,33.40
2018-05-31T15:03:19.643Z,33.30
2018-05-31T15:05:47.132Z,33.10
2018-05-31T15:08:14.573Z,33.10
2018-05-31T15:10:42.055Z,33.10
2018-05-31T15:13:09.507Z,33.10
2018-05-31T15:15:36.972Z,32.90
2018-05-31T15:18:04.415Z,32.90
2018-05-31T15:20:31.895Z,32.80
2018-05-31T15:22:59.339Z,32.70
2018-05-31T15:25:26.786Z,32.60
2018-05-31T15:27:54.253Z,32.50
2018-05-31T15:30:21.697Z,32.40
2018-05-31T15:32:49.148Z,32.20
2018-05-31T15:35:16.652Z,31.90
2018-05-31T15:37:44.151Z,31.70
2018-05-31T15:40:11.622Z,31.70
2018-05-31T15:42:39.486Z,31.70
2018-05-31T15:45:06.956Z,31.90
2018-05-31T15:47:34.809Z,31.90
2018-05-31T15:50:02.252Z,32.00
2018-05-31T15:52:29.738Z,32.00
2018-05-31T15:54:57.271Z,32.10
2018-05-31T15:57:24.720Z,32.10
2018-05-31T15:59:52.177Z,32.20
2018-05-31T16:02:19.669Z,32.20
2018-05-31T16:04:47.115Z,32.00
2018-05-31T16:07:14.548Z,31.90
2018-05-31T16:09:42.036Z,31.90
2018-05-31T16:12:09.501Z,31.70
2018-05-31T16:14:36.949Z,31.50
2018-05-31T16:17:04.512Z,31.40
2018-05-31T16:19:31.957Z,31.20
2018-05-31T16:22:00.568Z,31.00
2018-05-31T16:24:28.041Z,30.90
2018-05-31T16:26:55.495Z,30.80
2018-05-31T16:29:22.936Z,30.70
2018-05-31T16:31:50.383Z,30.60
2018-05-31T16:34:17.846Z,30.50
2018-05-31T16:36:45.691Z,30.50
2018-05-31T16:39:13.143Z,30.60
2018-05-31T16:41:40.584Z,30.60
2018-05-31T16:44:08.042Z,30.50
2018-05-31T16:46:35.606Z,30.40
2018-05-31T16:49:03.028Z,30.40
2018-05-31T16:51:30.510Z,30.40
2018-05-31T16:53:57.954Z,30.30
2018-05-31T16:56:25.412Z,30.40
2018-05-31T16:58:52.924Z,30.30
2018-05-31T17:01:20.402Z,30.30
2018-05-31T17:03:47.864Z,30.20
2018-05-31T17:06:15.328Z,30.10
2018-05-31T17:08:42.774Z,30.20
2018-05-31T17:11:10.248Z,30.30
2018-05-31T17:13:37.689Z,30.30
2018-05-31T17:16:05.149Z,30.30
2018-05-31T17:18:32.615Z,30.30
2018-05-31T17:21:00.052Z,30.30
2018-05-31T17:23:27.499Z,30.20
2018-05-31T17:25:55.344Z,30.30
2018-05-31T17:28:22.813Z,30.30
2018-05-31T17:30:50.268Z,30.40
2018-05-31T17:33:17.730Z,30.30
2018-05-31T17:35:45.208Z,30.20
2018-05-31T17:38:13.072Z,30.10
2018-05-31T17:40:40.525Z,30.00
2018-05-31T17:43:07.984Z,30.00
2018-05-31T17:45:35.514Z,29.90
2018-05-31T17:48:02.976Z,29.80
2018-05-31T17:50:30.411Z,29.70
2018-05-31T17:52:57.884Z,29.60
2018-05-31T17:55:25.366Z,29.60
2018-05-31T17:57:52.889Z,29.50
2018-05-31T18:00:21.112Z,29.50
2018-05-31T18:02:48.569Z,29.40
2018-05-31T18:05:16.027Z,29.40
2018-05-31T18:07:43.476Z,29.40
2018-05-31T18:10:10.913Z,29.40
2018-05-31T18:12:38.365Z,29.40
2018-05-31T18:15:06.210Z,29.30
2018-05-31T18:17:33.672Z,29.30
2018-05-31T18:20:01.119Z,29.20
2018-05-31T18:22:28.570Z,29.10
2018-05-31T18:24:56.084Z,29.10
2018-05-31T18:27:23.595Z,29.10
2018-05-31T18:29:51.056Z,29.10
2018-05-31T18:32:18.524Z,29.10
2018-05-31T18:34:46.024Z,29.00
2018-05-31T18:37:13.449Z,29.00
2018-05-31T18:39:40.909Z,28.90
2018-05-31T18:42:08.365Z,28.80
2018-05-31T18:44:35.804Z,28.80
2018-05-31T18:47:03.292Z,28.70
2018-05-31T18:49:30.740Z,28.80
2018-05-31T18:51:58.198Z,28.70
2018-05-31T18:54:25.652Z,28.70
2018-05-31T18:56:53.121Z,28.70
2018-05-31T18:59:20.582Z,28.60
2018-05-31T19:01:48.031Z,28.60
2018-05-31T19:04:15.488Z,28.60
2018-05-31T19:06:42.937Z,28.40
2018-05-31T19:09:16.116Z,28.30
2018-05-31T19:11:43.584Z,28.10
2018-05-31T19:14:11.065Z,28.00
2018-05-31T19:16:38.893Z,27.90
2018-05-31T19:19:11.908Z,27.80
2018-05-31T19:21:39.390Z,27.60
2018-05-31T19:24:13.348Z,27.30
2018-05-31T19:26:40.799Z,27.30
2018-05-31T19:29:08.497Z,27.20
2018-05-31T19:31:36.277Z,27.00
2018-05-31T19:34:03.734Z,26.90
2018-05-31T19:36:36.869Z,26.70
2018-05-31T19:39:04.325Z,26.60
2018-05-31T19:41:31.941Z,26.50
2018-05-31T19:44:05.137Z,26.40
2018-05-31T19:46:32.579Z,26.40
2018-05-31T19:49:00.029Z,26.30
2018-05-31T19:51:33.188Z,26.20
2018-05-31T19:54:00.708Z,26.10
2018-05-31T19:56:28.130Z,26.10
2018-05-31T19:59:01.171Z,26.00
2018-05-31T20:01:34.330Z,26.00
2018-05-31T20:04:02.581Z,25.90
2018-05-31T20:06:30.020Z,25.80
2018-05-31T20:08:57.474Z,25.90
2018-05-31T20:11:25.106Z,25.90
2018-05-31T20:13:52.628Z,25.80
2018-05-31T20:16:20.085Z,25.80
2018-05-31T20:18:47.552Z,25.80
2018-05-31T20:21:15.017Z,25.90
2018-05-31T20:23:42.477Z,25.90
2018-05-31T20:26:09.921Z,25.80
2018-05-31T20:28:37.409Z,25.80
2018-05-31T20:31:04.859Z,25.70
2018-05-31T20:33:32.322Z,25.60
2018-05-31T20:35:59.763Z,25.60
2018-05-31T20:38:27.206Z,25.40
2018-05-31T20:40:54.691Z,25.40
2018-05-31T20:43:22.159Z,25.40
2018-05-31T20:45:49.627Z,25.30
2018-05-31T20:48:17.104Z,25.30
2018-05-31T20:50:44.541Z,25.30
2018-05-31T20:53:12.423Z,25.30
2018-05-31T20:55:39.860Z,25.30
2018-05-31T20:58:07.329Z,25.30
2018-05-31T21:00:34.796Z,25.30
2018-05-31T21:03:02.279Z,25.30
2018-05-31T21:05:30.160Z,25.30
2018-05-31T21:07:57.577Z,25.20
2018-05-31T21:10:25.156Z,25.20
2018-05-31T21:12:52.916Z,25.20
2018-05-31T21:15:20.800Z,25.10
2018-05-31T21:17:48.295Z,25.10
2018-05-31T21:20:15.743Z,25.00
2018-05-31T21:22:43.245Z,25.00
2018-05-31T21:25:10.672Z,24.90
2018-05-31T21:27:38.191Z,24.80
2018-05-31T21:30:05.632Z,24.80
2018-05-31T21:32:33.081Z,24.60
2018-05-31T21:35:01.423Z,24.60
2018-05-31T21:37:28.864Z,24.50
2018-05-31T21:39:56.662Z,24.50
2018-05-31T21:42:24.123Z,24.50
2018-05-31T21:44:51.582Z,24.50
2018-05-31T21:47:19.061Z,24.40
2018-05-31T21:49:46.515Z,24.40
2018-05-31T21:52:13.973Z,24.40
2018-05-31T21:54:41.431Z,24.30
2018-05-31T21:57:08.863Z,24.30
2018-05-31T21:59:36.433Z,24.30
2018-05-31T22:02:03.886Z,24.30
2018-05-31T22:04:31.332Z,24.20
2018-05-31T22:06:58.792Z,24.20
2018-05-31T22:09:26.244Z,24.20
2018-05-31T22:11:53.735Z,24.20
2018-05-31T22:14:21.176Z,24.10
2018-05-31T22:16:48.618Z,24.10
2018-05-31T22:19:16.078Z,24.00
2018-05-31T22:21:43.572Z,24.00
2018-05-31T22:24:11.032Z,24.00
2018-05-31T22:26:38.475Z,23.90
2018-05-31T22:29:05.922Z,23.80
2018-05-31T22:31:33.499Z,23.70
2018-05-31T22:34:01.700Z,23.60
2018-05-31T22:36:29.218Z,23.60
2018-05-31T22:38:56.601Z,23.60
2018-05-31T22:41:24.613Z,23.60
2018-05-31T22:43:52.329Z,23.60
2018-05-31T22:46:20.163Z,23.60
2018-05-31T22:48:47.618Z,23.60
2018-05-31T22:51:15.073Z,23.60
2018-05-31T22:53:42.564Z,23.60
2018-05-31T22:56:10.424Z,23.60
2018-05-31T22:58:37.924Z,23.60
2018-05-31T23:01:05.387Z,23.60
2018-05-31T23:03:33.215Z,23.60
2018-05-31T23:06:00.652Z,23.60
2018-05-31T23:08:33.818Z,23.60
2018-05-31T23:11:01.355Z,23.50
2018-05-31T23:13:28.894Z,23.50
2018-05-31T23:15:56.675Z,23.40
2018-05-31T23:18:24.143Z,23.40
2018-05-31T23:20:51.629Z,23.40
2018-05-31T23:23:19.081Z,23.30
2018-05-31T23:25:46.539Z,23.20
2018-05-31T23:28:14.006Z,23.20
2018-05-31T23:30:41.467Z,23.20
2018-05-31T23:33:08.921Z,23.20
2018-05-31T23:35:36.441Z,23.20
2018-05-31T23:38:03.862Z,23.30
2018-05-31T23:40:31.304Z,23.30
2018-05-31T23:42:58.763Z,23.40
2018-05-31T23:45:26.227Z,23.40
2018-05-31T23:47:54.095Z,23.50
2018-05-31T23:50:21.567Z,23.50
2018-05-31T23:52:49.042Z,23.50
2018-05-31T23:55:16.476Z,23.60
2018-05-31T23:57:43.951Z,23.50
